Time;durP1;ratioP1;P1;durP2;ratioP2;P2;SDS_P1;SDS_P2;PMS_P1;PMS_P2;Temp;Humidity;BMP_temperature;BMP_pressure;BME280_temperature;BME280_humidity;BME280_pressure;Samples;Min_cycle;Max_cycle;Signal;HPM_P1;HPM_P2
2023/11/12 00:00:01;;;;;;;22.45;16.98;;;3.80;99.90;;;;;;5036600;28;20045;-60
2023/11/12 00:02:30;;;;;;;28.48;17.95;;;3.80;99.90;;;;;;5019570;28;20038;-60
2023/11/12 00:04:57;;;;;;;25.13;17.25;;;3.70;99.90;;;;;;5036647;28;20046;-60
2023/11/12 00:07:23;;;;;;;26.90;17.35;;;3.70;99.90;;;;;;5036604;28;20041;-60
2023/11/12 00:09:50;;;;;;;24.90;17.50;;;3.70;99.90;;;;;;5036784;28;20487;-60
2023/11/12 00:12:19;;;;;;;24.15;17.10;;;3.70;99.90;;;;;;5036253;28;20108;-60
2023/11/12 00:14:46;;;;;;;22.15;15.32;;;3.70;99.90;;;;;;5036287;28;20038;-60
2023/11/12 00:17:13;;;;;;;20.33;14.77;;;3.70;99.90;;;;;;5036897;28;20041;-60
2023/11/12 00:19:40;;;;;;;22.08;15.13;;;3.70;99.90;;;;;;5036758;28;20427;-60
2023/11/12 00:22:08;;;;;;;21.02;13.57;;;3.70;99.90;;;;;;5018910;28;20046;-60
2023/11/12 00:24:34;;;;;;;24.30;14.18;;;3.70;99.90;;;;;;5036049;28;20124;-60
2023/11/12 00:27:01;;;;;;;22.67;13.77;;;3.70;99.90;;;;;;5036774;28;20041;-60
2023/11/12 00:29:28;;;;;;;20.02;13.75;;;3.70;99.90;;;;;;5036176;28;20132;-59
2023/11/12 00:31:55;;;;;;;20.27;12.73;;;3.70;99.90;;;;;;5036507;28;20048;-60
2023/11/12 00:34:23;;;;;;;17.27;11.23;;;3.70;99.90;;;;;;5036406;28;20045;-60
2023/11/12 00:36:49;;;;;;;18.50;11.02;;;3.60;99.90;;;;;;5017956;28;20041;-60
2023/11/12 00:39:16;;;;;;;19.60;10.23;;;3.70;99.90;;;;;;5018149;28;20060;-60
2023/11/12 00:41:43;;;;;;;15.73;10.52;;;3.70;99.90;;;;;;5035109;28;20053;-60
2023/11/12 00:44:10;;;;;;;16.30;10.18;;;3.70;99.90;;;;;;5035708;28;20473;-60
2023/11/12 00:46:40;;;;;;;15.95;10.05;;;3.70;99.90;;;;;;5036379;28;20398;-60
2023/11/12 00:49:07;;;;;;;18.63;10.35;;;3.70;99.90;;;;;;5035574;28;20051;-60
2023/11/12 00:51:35;;;;;;;17.73;10.90;;;3.70;99.90;;;;;;5036076;28;20343;-64
2023/11/12 00:54:02;;;;;;;14.68;9.52;;;3.70;99.90;;;;;;5035753;28;20041;-63
2023/11/12 00:56:29;;;;;;;17.15;9.52;;;3.70;99.90;;;;;;5035819;28;20037;-63
2023/11/12 00:58:56;;;;;;;13.82;10.10;;;3.70;99.90;;;;;;5035388;28;20048;-64
2023/11/12 01:01:23;;;;;;;15.52;10.20;;;3.70;99.90;;;;;;5018170;28;20081;-64
2023/11/12 01:03:50;;;;;;;16.58;9.65;;;3.70;99.90;;;;;;5035809;28;20045;-64
2023/11/12 01:06:17;;;;;;;16.17;8.77;;;3.70;99.90;;;;;;5017896;28;20049;-63
2023/11/12 01:08:43;;;;;;;15.38;9.10;;;3.70;99.90;;;;;;5035410;28;20447;-63
2023/11/12 01:11:11;;;;;;;15.93;10.25;;;3.80;99.90;;;;;;5017804;28;20033;-64
2023/11/12 01:13:38;;;;;;;14.25;9.10;;;3.80;99.90;;;;;;5018026;28;20451;-63
2023/11/12 01:16:05;;;;;;;14.60;8.60;;;3.80;99.90;;;;;;5017177;28;20044;-64
2023/11/12 01:18:33;;;;;;;16.73;9.25;;;3.80;99.90;;;;;;5035451;28;20439;-63
2023/11/12 01:21:00;;;;;;;14.95;9.18;;;3.80;99.90;;;;;;5017307;28;20164;-63
2023/11/12 01:23:27;;;;;;;13.68;8.25;;;3.80;99.90;;;;;;5035059;28;20045;-63
2023/11/12 01:25:54;;;;;;;16.70;8.60;;;3.80;99.90;;;;;;5017305;28;20049;-63
2023/11/12 01:28:21;;;;;;;15.07;8.73;;;3.90;99.90;;;;;;5034752;28;20052;-64
2023/11/12 01:30:48;;;;;;;14.73;8.70;;;3.90;99.90;;;;;;5017166;28;20513;-64
2023/11/12 01:33:15;;;;;;;13.75;7.88;;;3.90;99.90;;;;;;5034831;28;20065;-64
2023/11/12 01:35:42;;;;;;;13.30;8.70;;;3.90;99.90;;;;;;5034629;28;20045;-63
2023/11/12 01:38:09;;;;;;;12.80;7.50;;;3.90;99.90;;;;;;5034721;28;20034;-63
2023/11/12 01:40:36;;;;;;;12.10;7.47;;;3.90;99.90;;;;;;5017109;28;20039;-63
2023/11/12 01:43:03;;;;;;;11.73;7.60;;;4.00;99.90;;;;;;5034245;28;20054;-63
2023/11/12 01:45:29;;;;;;;12.98;6.45;;;4.00;99.90;;;;;;5034991;28;20042;-64
2023/11/12 01:47:56;;;;;;;9.85;6.38;;;4.00;99.90;;;;;;5016831;28;20103;-63
2023/11/12 01:50:23;;;;;;;10.52;6.72;;;4.10;99.90;;;;;;5017146;28;20051;-63
2023/11/12 01:52:50;;;;;;;12.55;7.55;;;4.20;99.90;;;;;;5034204;28;20045;-63
2023/11/12 01:55:17;;;;;;;13.10;6.38;;;4.20;99.90;;;;;;5017372;28;20048;-63
2023/11/12 01:57:45;;;;;;;14.10;7.40;;;4.30;99.90;;;;;;5034298;28;20121;-63
2023/11/12 02:00:15;;;;;;;12.40;6.65;;;4.30;99.90;;;;;;5016382;28;20041;-63
2023/11/12 02:02:43;;;;;;;12.52;7.07;;;4.30;99.90;;;;;;5016628;28;20052;-63
2023/11/12 02:05:10;;;;;;;10.25;6.72;;;4.30;99.90;;;;;;5016743;28;20052;-59
2023/11/12 02:07:37;;;;;;;12.57;6.68;;;4.40;99.90;;;;;;5016233;28;20057;-59
2023/11/12 02:10:13;;;;;;;10.68;7.13;;;4.40;99.90;;;;;;5016640;28;20049;-60
2023/11/12 02:12:42;;;;;;;14.55;7.25;;;4.40;99.90;;;;;;5034635;28;20037;-59
2023/11/12 02:15:08;;;;;;;11.48;6.50;;;4.50;99.90;;;;;;5016659;28;20087;-59
2023/11/12 02:17:36;;;;;;;10.60;6.00;;;4.50;99.90;;;;;;5033956;28;20080;-60
2023/11/12 02:20:03;;;;;;;10.00;6.40;;;4.50;99.90;;;;;;5016933;28;20048;-59
2023/11/12 02:22:30;;;;;;;8.02;5.55;;;4.50;99.90;;;;;;5016111;28;20535;-60
2023/11/12 02:24:57;;;;;;;9.40;5.80;;;4.60;99.90;;;;;;4999850;28;20128;-59
2023/11/12 02:27:24;;;;;;;10.02;5.82;;;4.60;99.90;;;;;;5016593;28;20045;-60
2023/11/12 02:29:50;;;;;;;9.95;5.75;;;4.60;99.90;;;;;;5016223;28;20129;-59
2023/11/12 02:32:18;;;;;;;15.07;6.28;;;4.60;99.90;;;;;;5015922;28;20046;-59
2023/11/12 02:34:45;;;;;;;8.15;5.25;;;4.60;99.90;;;;;;5015891;28;20037;-59
2023/11/12 02:37:12;;;;;;;10.98;5.35;;;4.60;99.90;;;;;;5016507;28;20063;-59
2023/11/12 02:39:42;;;;;;;10.48;5.32;;;4.60;99.90;;;;;;5016071;28;20068;-59
2023/11/12 02:42:09;;;;;;;12.60;5.18;;;4.60;99.90;;;;;;5033560;28;20051;-59
2023/11/12 02:44:39;;;;;;;11.57;5.18;;;4.70;99.90;;;;;;4977296;28;20403;-58
2023/11/12 02:47:06;;;;;;;8.48;5.20;;;4.70;99.90;;;;;;4992966;28;20097;-58
2023/11/12 02:49:33;;;;;;;9.25;5.05;;;4.70;99.90;;;;;;4994469;28;20495;-59
2023/11/12 02:52:00;;;;;;;11.93;5.32;;;4.70;99.90;;;;;;4994396;28;20050;-59
2023/11/12 02:54:27;;;;;;;11.93;5.32;;;4.70;99.90;;;;;;5009758;28;20379;-58
2023/11/12 02:56:53;;;;;;;9.07;5.22;;;4.70;99.90;;;;;;4992945;28;20046;-59
2023/11/12 02:59:20;;;;;;;10.93;5.90;;;4.70;99.90;;;;;;5009449;28;20138;-60
2023/11/12 03:01:47;;;;;;;9.30;6.15;;;4.70;99.90;;;;;;5009108;28;20050;-60
2023/11/12 03:04:14;;;;;;;8.70;5.45;;;4.70;99.90;;;;;;4997383;28;20042;-59
2023/11/12 03:06:41;;;;;;;9.40;5.68;;;4.70;99.90;;;;;;5016207;28;20419;-58
2023/11/12 03:09:09;;;;;;;10.35;5.88;;;4.70;99.90;;;;;;5015955;28;20069;-59
2023/11/12 03:11:37;;;;;;;13.27;6.88;;;4.70;99.90;;;;;;5000449;28;20079;-59
2023/11/12 03:14:04;;;;;;;9.50;6.00;;;4.70;99.90;;;;;;5000709;28;20057;-59
2023/11/12 03:16:31;;;;;;;9.45;6.07;;;4.60;99.90;;;;;;5016179;28;20502;-59
2023/11/12 03:19:00;;;;;;;11.07;6.93;;;4.60;99.90;;;;;;4999459;28;20043;-59
2023/11/12 03:21:27;;;;;;;13.23;7.13;;;4.60;99.90;;;;;;5032306;28;20046;-59
2023/11/12 03:23:55;;;;;;;12.20;7.10;;;4.70;99.90;;;;;;4999767;28;20073;-60
2023/11/12 03:26:21;;;;;;;11.27;7.65;;;4.70;99.90;;;;;;5015438;28;20149;-65
2023/11/12 03:28:48;;;;;;;12.57;7.47;;;4.70;99.90;;;;;;5000641;28;20053;-65
2023/11/12 03:31:15;;;;;;;12.05;7.10;;;4.70;99.90;;;;;;5015340;28;20142;-65
2023/11/12 03:33:42;;;;;;;11.63;6.93;;;4.70;99.90;;;;;;5000983;28;20464;-64
2023/11/12 03:36:09;;;;;;;10.73;6.85;;;4.70;99.90;;;;;;5000861;28;20441;-65
2023/11/12 03:38:37;;;;;;;11.10;7.05;;;4.80;99.90;;;;;;5000594;28;20438;-65
2023/11/12 03:41:05;;;;;;;10.02;7.00;;;4.80;99.90;;;;;;5000036;28;20538;-65
2023/11/12 03:43:31;;;;;;;10.20;6.60;;;4.90;99.90;;;;;;4999305;28;20058;-65
2023/11/12 03:45:58;;;;;;;12.35;6.93;;;4.90;99.90;;;;;;5000514;28;20118;-65
2023/11/12 03:48:25;;;;;;;16.27;7.03;;;4.90;99.90;;;;;;4999227;28;20038;-65
2023/11/12 03:50:52;;;;;;;13.88;7.03;;;4.90;99.90;;;;;;5000848;28;20534;-66
2023/11/12 03:53:18;;;;;;;10.77;7.10;;;4.90;99.90;;;;;;5000367;28;20407;-65
2023/11/12 03:55:45;;;;;;;12.70;7.30;;;4.90;99.90;;;;;;5000773;28;20125;-65
2023/11/12 03:58:13;;;;;;;11.52;6.63;;;4.90;99.90;;;;;;5000093;28;20038;-65
2023/11/12 04:00:40;;;;;;;12.07;7.10;;;4.90;99.90;;;;;;4999097;28;20049;-65
2023/11/12 04:03:07;;;;;;;9.43;6.15;;;5.00;99.90;;;;;;4998985;28;20156;-65
2023/11/12 04:05:34;;;;;;;10.23;6.20;;;5.00;99.90;;;;;;5000623;28;20109;-65
2023/11/12 04:08:01;;;;;;;12.40;6.57;;;5.10;99.90;;;;;;4998816;28;20518;-66
2023/11/12 04:10:28;;;;;;;10.52;5.57;;;5.10;99.90;;;;;;4999338;28;20078;-65
2023/11/12 04:12:55;;;;;;;10.07;5.90;;;5.20;99.90;;;;;;4999157;28;20050;-65
2023/11/12 04:15:21;;;;;;;13.10;5.72;;;5.20;99.90;;;;;;4997737;28;20053;-65
2023/11/12 04:17:48;;;;;;;9.82;5.90;;;5.30;99.90;;;;;;4995543;28;20038;-65
2023/11/12 04:20:15;;;;;;;13.63;6.05;;;5.30;99.90;;;;;;4997271;28;20515;-65
2023/11/12 04:22:42;;;;;;;12.43;5.85;;;5.30;99.90;;;;;;4996980;28;20046;-65
2023/11/12 04:25:09;;;;;;;9.23;5.88;;;5.30;99.90;;;;;;4997186;28;20480;-63
2023/11/12 04:27:37;;;;;;;10.75;5.47;;;5.40;99.90;;;;;;4997245;28;20046;-60
2023/11/12 04:30:07;;;;;;;10.60;6.00;;;5.40;99.90;;;;;;4996997;28;20060;-65
2023/11/12 04:32:35;;;;;;;13.90;5.82;;;5.50;99.90;;;;;;4997040;28;20034;-65
2023/11/12 04:35:02;;;;;;;11.10;5.78;;;5.50;99.90;;;;;;4996944;28;20130;-64
2023/11/12 04:37:29;;;;;;;11.50;6.00;;;5.50;99.90;;;;;;4995597;28;20045;-64
2023/11/12 04:39:56;;;;;;;9.75;5.78;;;5.50;99.90;;;;;;4996483;28;20046;-65
2023/11/12 04:42:23;;;;;;;8.80;5.60;;;5.50;99.90;;;;;;4999358;28;20046;-64
2023/11/12 04:44:50;;;;;;;9.50;5.63;;;5.60;99.90;;;;;;5036326;28;20521;-65
2023/11/12 04:47:17;;;;;;;11.82;5.93;;;5.60;99.90;;;;;;5018859;28;20045;-65
2023/11/12 04:49:43;;;;;;;11.73;6.07;;;5.60;99.90;;;;;;5035830;28;20033;-66
2023/11/12 04:52:10;;;;;;;9.32;5.93;;;5.60;99.90;;;;;;5035765;28;20064;-65
2023/11/12 04:54:37;;;;;;;8.50;5.80;;;5.60;99.90;;;;;;5036095;28;20390;-65
2023/11/12 04:57:04;;;;;;;11.88;6.05;;;5.60;99.90;;;;;;5035652;28;20041;-65
2023/11/12 04:59:31;;;;;;;11.85;5.85;;;5.70;99.90;;;;;;5018306;28;20052;-64
2023/11/12 05:01:59;;;;;;;10.35;6.20;;;5.70;99.90;;;;;;5035407;28;20056;-64
2023/11/12 05:04:26;;;;;;;10.32;6.25;;;5.70;99.90;;;;;;5035677;28;20475;-64
2023/11/12 05:06:53;;;;;;;9.13;5.95;;;5.70;99.90;;;;;;5017811;28;20482;-64
2023/11/12 05:09:20;;;;;;;12.20;6.15;;;5.70;99.90;;;;;;5017600;28;20056;-65
2023/11/12 05:11:46;;;;;;;11.02;6.25;;;5.70;99.90;;;;;;5035855;28;20356;-64
2023/11/12 05:14:14;;;;;;;10.35;5.88;;;5.80;99.90;;;;;;5035653;28;20068;-64
2023/11/12 05:16:40;;;;;;;8.10;5.45;;;5.80;99.90;;;;;;5035012;28;20069;-64
2023/11/12 05:19:07;;;;;;;9.45;5.70;;;5.80;99.90;;;;;;5035430;28;20083;-64
2023/11/12 05:21:34;;;;;;;8.68;6.00;;;5.90;99.90;;;;;;5035143;28;20038;-64
2023/11/12 05:24:01;;;;;;;9.20;5.88;;;5.90;99.90;;;;;;5035612;28;20065;-65
2023/11/12 05:26:28;;;;;;;14.43;6.25;;;5.90;99.90;;;;;;5034551;28;20044;-64
2023/11/12 05:28:54;;;;;;;10.18;5.35;;;5.90;99.90;;;;;;5035254;28;20040;-65
2023/11/12 05:31:22;;;;;;;8.65;5.22;;;5.90;99.90;;;;;;5034927;28;20112;-64
2023/11/12 05:33:49;;;;;;;8.13;5.55;;;5.90;99.90;;;;;;5034953;28;20116;-64
2023/11/12 05:36:16;;;;;;;10.82;5.78;;;5.90;99.90;;;;;;5034655;28;20506;-65
2023/11/12 05:38:43;;;;;;;11.15;5.10;;;5.90;99.90;;;;;;5034682;28;20133;-64
2023/11/12 05:41:10;;;;;;;10.13;5.22;;;5.90;99.90;;;;;;5035175;28;20474;-64
2023/11/12 05:43:36;;;;;;;9.40;5.10;;;6.00;99.90;;;;;;5034405;28;20054;-64
2023/11/12 05:46:03;;;;;;;8.20;4.70;;;6.00;99.90;;;;;;5034656;28;20059;-64
2023/11/12 05:48:31;;;;;;;9.25;4.45;;;6.00;99.90;;;;;;5034856;28;20398;-64
2023/11/12 05:50:59;;;;;;;7.20;5.10;;;6.00;99.90;;;;;;5035103;28;20056;-65
2023/11/12 05:53:26;;;;;;;9.00;4.30;;;6.00;99.90;;;;;;5034333;28;20120;-65
2023/11/12 05:55:53;;;;;;;6.38;4.35;;;6.00;99.90;;;;;;5034182;28;20037;-64
2023/11/12 05:58:20;;;;;;;8.07;4.88;;;6.00;99.90;;;;;;5034436;28;20044;-64
2023/11/12 06:00:47;;;;;;;7.65;4.85;;;6.00;99.90;;;;;;5034667;28;20056;-63
2023/11/12 06:03:14;;;;;;;9.55;4.95;;;6.00;99.90;;;;;;5034571;28;20132;-63
2023/11/12 06:05:41;;;;;;;8.13;5.47;;;6.00;99.90;;;;;;5034353;28;20074;-63
2023/11/12 06:08:07;;;;;;;9.35;5.82;;;6.10;99.90;;;;;;5034465;28;20046;-64
2023/11/12 06:10:35;;;;;;;10.80;5.38;;;6.10;99.90;;;;;;5034409;28;20050;-63
2023/11/12 06:13:02;;;;;;;8.93;4.75;;;6.10;99.90;;;;;;5034106;28;20052;-64
2023/11/12 06:15:29;;;;;;;10.35;5.28;;;6.10;99.90;;;;;;5034105;28;20482;-63
2023/11/12 06:17:55;;;;;;;7.38;5.22;;;6.10;99.90;;;;;;5034381;28;20037;-64
2023/11/12 06:20:25;;;;;;;9.13;5.72;;;6.10;99.90;;;;;;5034123;28;20037;-63
2023/11/12 06:22:52;;;;;;;7.38;5.28;;;6.10;99.90;;;;;;5034489;28;20053;-63
2023/11/12 06:25:18;;;;;;;8.52;6.13;;;6.10;99.90;;;;;;5034278;28;20049;-64
2023/11/12 06:27:47;;;;;;;7.30;5.22;;;6.10;99.90;;;;;;5034116;28;20052;-63
2023/11/12 06:30:14;;;;;;;9.25;5.95;;;6.10;99.90;;;;;;5034013;28;20048;-65
2023/11/12 06:32:40;;;;;;;7.78;5.40;;;6.10;99.90;;;;;;5034037;28;20128;-64
2023/11/12 06:35:07;;;;;;;9.57;6.13;;;6.00;99.90;;;;;;5034138;28;20040;-64
2023/11/12 06:37:34;;;;;;;10.23;5.70;;;6.00;99.90;;;;;;5033367;28;20037;-63
2023/11/12 06:40:01;;;;;;;9.75;5.55;;;6.00;99.90;;;;;;5033183;28;20076;-63
2023/11/12 06:42:28;;;;;;;8.95;5.45;;;6.10;99.90;;;;;;5034040;28;20057;-63
2023/11/12 06:44:54;;;;;;;8.18;5.28;;;6.10;99.90;;;;;;5034029;28;20041;-63
2023/11/12 06:47:21;;;;;;;9.10;5.55;;;6.10;99.90;;;;;;5033561;28;20044;-63
2023/11/12 06:49:48;;;;;;;9.60;5.57;;;6.10;99.90;;;;;;5033718;28;20501;-63
2023/11/12 06:52:15;;;;;;;9.77;5.20;;;6.10;99.90;;;;;;5033305;28;20041;-64
2023/11/12 06:54:42;;;;;;;12.43;5.55;;;6.20;99.90;;;;;;5016710;28;20056;-64
2023/11/12 06:57:09;;;;;;;7.57;5.38;;;6.20;99.90;;;;;;5033325;28;20037;-64
2023/11/12 06:59:36;;;;;;;10.82;5.20;;;6.20;99.90;;;;;;5033451;28;20072;-64
2023/11/12 07:02:03;;;;;;;7.68;5.13;;;6.20;99.90;;;;;;5033895;28;20391;-64
2023/11/12 07:04:30;;;;;;;6.65;5.22;;;6.30;99.90;;;;;;5033644;28;20509;-63
2023/11/12 07:06:57;;;;;;;8.13;5.13;;;6.30;99.90;;;;;;5033819;28;20073;-63
2023/11/12 07:09:39;;;;;;;7.90;5.13;;;6.30;99.90;;;;;;5001656;28;20379;-63
2023/11/12 07:12:06;;;;;;;7.90;5.35;;;6.30;99.90;;;;;;5033482;28;20053;-63
2023/11/12 07:14:33;;;;;;;9.63;5.72;;;6.30;99.90;;;;;;5033811;28;20060;-63
2023/11/12 07:17:00;;;;;;;11.32;5.45;;;6.30;99.90;;;;;;5015981;28;20041;-63
2023/11/12 07:19:27;;;;;;;9.82;5.57;;;6.30;99.90;;;;;;5033651;28;20038;-63
2023/11/12 07:21:54;;;;;;;8.20;5.30;;;6.30;99.90;;;;;;5033355;28;20048;-63
2023/11/12 07:24:21;;;;;;;9.13;5.63;;;6.30;99.90;;;;;;5033391;28;20442;-63
2023/11/12 07:26:48;;;;;;;7.95;5.32;;;6.30;99.90;;;;;;5033011;28;20045;-63
2023/11/12 07:29:15;;;;;;;12.02;6.57;;;6.40;99.90;;;;;;5033403;28;20489;-66
2023/11/12 07:31:42;;;;;;;9.27;5.78;;;6.30;99.90;;;;;;5033692;28;20044;-59
2023/11/12 07:34:09;;;;;;;8.65;5.88;;;6.30;99.90;;;;;;5033160;28;20103;-59
2023/11/12 07:36:36;;;;;;;6.93;5.65;;;6.30;99.90;;;;;;5033182;28;20045;-63
2023/11/12 07:39:03;;;;;;;7.88;5.72;;;6.30;99.90;;;;;;5033167;28;20042;-64
2023/11/12 07:41:30;;;;;;;9.57;6.00;;;6.40;99.90;;;;;;5033224;28;20048;-63
2023/11/12 07:43:57;;;;;;;9.00;5.68;;;6.40;99.90;;;;;;5033409;28;20053;-63
2023/11/12 07:46:23;;;;;;;10.75;5.60;;;6.40;99.90;;;;;;5032830;28;20486;-65
2023/11/12 07:48:50;;;;;;;8.90;5.85;;;6.40;99.90;;;;;;5032678;28;20092;-63
2023/11/12 07:51:17;;;;;;;7.95;5.20;;;6.40;99.90;;;;;;5035788;28;20051;-65
2023/11/12 07:53:44;;;;;;;10.18;5.57;;;6.50;99.90;;;;;;5036826;28;20045;-63
2023/11/12 07:56:11;;;;;;;9.18;5.90;;;6.50;99.90;;;;;;5036858;28;20127;-65
2023/11/12 07:58:38;;;;;;;8.27;5.40;;;6.50;99.90;;;;;;5036708;28;20052;-63
2023/11/12 08:01:05;;;;;;;7.80;4.93;;;6.60;99.90;;;;;;5037271;28;20561;-63
2023/11/12 08:03:31;;;;;;;7.88;5.03;;;6.60;99.90;;;;;;5037634;28;20052;-63
2023/11/12 08:05:58;;;;;;;9.82;4.70;;;6.60;99.90;;;;;;5037397;28;20037;-65
2023/11/12 08:08:26;;;;;;;8.07;4.70;;;6.70;99.90;;;;;;5036341;28;20045;-63
2023/11/12 08:10:53;;;;;;;10.10;4.35;;;6.70;99.90;;;;;;5036282;28;20049;-63
2023/11/12 08:13:20;;;;;;;7.03;4.18;;;6.70;99.90;;;;;;5036029;28;20045;-63
2023/11/12 08:15:47;;;;;;;9.80;5.57;;;6.80;99.90;;;;;;5019228;28;20493;-63
2023/11/12 08:18:14;;;;;;;8.05;4.93;;;6.80;99.90;;;;;;5036505;28;20038;-64
2023/11/12 08:20:41;;;;;;;10.80;4.63;;;6.90;99.90;;;;;;5036586;28;20046;-65
2023/11/12 08:23:07;;;;;;;10.75;4.85;;;6.90;99.90;;;;;;5036582;28;20078;-64
2023/11/12 08:25:34;;;;;;;7.53;4.70;;;6.90;99.90;;;;;;5036283;28;20067;-64
2023/11/12 08:28:02;;;;;;;9.15;5.18;;;6.90;99.90;;;;;;5018022;28;20049;-63
2023/11/12 08:30:29;;;;;;;9.73;5.43;;;7.00;99.90;;;;;;5036477;28;20060;-63
2023/11/12 08:32:56;;;;;;;12.70;5.65;;;7.00;99.90;;;;;;5035920;28;20048;-63
2023/11/12 08:35:23;;;;;;;11.63;5.25;;;7.10;99.90;;;;;;5036222;28;20475;-64
2023/11/12 08:37:49;;;;;;;11.23;5.78;;;7.10;99.90;;;;;;5036252;28;20042;-64
2023/11/12 08:40:16;;;;;;;7.55;5.05;;;7.10;99.90;;;;;;5036024;28;20041;-63
2023/11/12 08:42:45;;;;;;;8.52;5.57;;;7.10;99.90;;;;;;5035632;28;20410;-63
2023/11/12 08:45:14;;;;;;;9.73;4.88;;;7.20;99.90;;;;;;5036056;28;20437;-63
2023/11/12 08:47:41;;;;;;;7.53;5.05;;;7.20;99.90;;;;;;5035763;28;20045;-63
2023/11/12 08:50:07;;;;;;;12.20;5.50;;;7.20;99.90;;;;;;5035795;28;20037;-63
2023/11/12 08:52:36;;;;;;;8.07;5.28;;;7.30;99.90;;;;;;5035484;28;20438;-64
2023/11/12 08:55:03;;;;;;;8.68;5.10;;;7.30;99.90;;;;;;5035634;28;20140;-65
2023/11/12 08:57:29;;;;;;;6.65;4.82;;;7.30;99.90;;;;;;5035344;28;20041;-65
2023/11/12 08:59:56;;;;;;;10.07;5.32;;;7.40;99.90;;;;;;5018103;28;20041;-63
2023/11/12 09:02:23;;;;;;;6.93;5.05;;;7.40;99.90;;;;;;5034685;28;20041;-63
2023/11/12 09:04:50;;;;;;;10.07;5.00;;;7.40;99.90;;;;;;5035781;28;20042;-63
2023/11/12 09:07:17;;;;;;;6.45;4.82;;;7.50;99.90;;;;;;5035399;28;20041;-64
2023/11/12 09:09:43;;;;;;;10.35;4.75;;;7.50;99.90;;;;;;5035618;28;20045;-63
2023/11/12 09:12:11;;;;;;;7.75;4.53;;;7.50;99.90;;;;;;5035376;28;20045;-63
2023/11/12 09:14:38;;;;;;;11.50;4.40;;;7.50;99.90;;;;;;5017805;28;20068;-63
2023/11/12 09:17:06;;;;;;;9.48;4.40;;;7.60;99.90;;;;;;5035287;28;20467;-65
2023/11/12 09:19:33;;;;;;;10.75;4.60;;;7.60;99.90;;;;;;5035044;28;20132;-63
2023/11/12 09:22:00;;;;;;;8.05;4.38;;;7.60;99.90;;;;;;5035702;28;20046;-64
2023/11/12 09:24:27;;;;;;;6.57;4.45;;;7.70;99.90;;;;;;5035431;28;20132;-63
2023/11/12 09:26:54;;;;;;;7.78;4.32;;;7.70;99.90;;;;;;5035028;28;20049;-59
2023/11/12 09:29:21;;;;;;;8.48;4.13;;;7.70;99.90;;;;;;5034814;28;20068;-59
2023/11/12 09:31:48;;;;;;;10.10;4.70;;;7.80;99.90;;;;;;5035072;28;20378;-59
2023/11/12 09:34:16;;;;;;;10.18;4.20;;;7.80;99.90;;;;;;5035060;28;20052;-59
2023/11/12 09:36:42;;;;;;;8.93;4.07;;;7.90;99.90;;;;;;5034537;28;20041;-60
2023/11/12 09:39:12;;;;;;;7.38;4.20;;;7.90;99.90;;;;;;5034485;28;20390;-60
2023/11/12 09:41:39;;;;;;;6.85;3.67;;;7.90;99.90;;;;;;5035371;28;20120;-60
2023/11/12 09:44:07;;;;;;;8.23;4.25;;;8.00;99.90;;;;;;5034844;28;20053;-65
2023/11/12 09:46:35;;;;;;;10.85;4.20;;;8.00;99.90;;;;;;5035021;28;20041;-63
2023/11/12 09:49:04;;;;;;;10.15;4.75;;;8.00;99.90;;;;;;5034375;28;20045;-66
2023/11/12 09:51:31;;;;;;;8.45;5.00;;;8.00;99.90;;;;;;5034973;28;20077;-65
2023/11/12 09:53:57;;;;;;;8.40;4.65;;;8.00;99.90;;;;;;5034401;28;20107;-65
2023/11/12 09:56:24;;;;;;;10.40;4.53;;;8.00;99.90;;;;;;5017103;28;20040;-65
2023/11/12 09:58:52;;;;;;;12.40;5.10;;;8.00;99.90;;;;;;5034508;28;20488;-65
2023/11/12 10:01:20;;;;;;;8.35;4.65;;;8.00;99.90;;;;;;5034440;28;20501;-66
2023/11/12 10:03:48;;;;;;;11.45;4.82;;;8.00;99.90;;;;;;5034551;28;20051;-65
2023/11/12 10:06:16;;;;;;;7.97;4.70;;;8.10;99.90;;;;;;5034207;28;20119;-65
2023/11/12 10:08:43;;;;;;;10.65;4.65;;;8.10;99.90;;;;;;5034436;28;20072;-65
2023/11/12 10:11:12;;;;;;;8.55;4.70;;;8.10;99.90;;;;;;5034439;28;20053;-65
2023/11/12 10:13:39;;;;;;;10.55;5.80;;;8.10;99.90;;;;;;5033820;28;20037;-66
2023/11/12 10:16:06;;;;;;;9.07;4.75;;;8.20;99.90;;;;;;5034630;28;20422;-65
2023/11/12 10:18:33;;;;;;;10.20;4.13;;;8.20;99.90;;;;;;5016248;28;20095;-66
2023/11/12 10:21:01;;;;;;;11.40;5.00;;;8.20;99.90;;;;;;5033887;28;20430;-65
2023/11/12 10:23:27;;;;;;;12.30;4.60;;;8.30;99.90;;;;;;5034075;28;20041;-66
2023/11/12 10:25:59;;;;;;;8.68;4.25;;;8.40;99.90;;;;;;5034081;28;20524;-65
2023/11/12 10:28:26;;;;;;;10.13;4.43;;;8.40;99.90;;;;;;5034187;28;20045;-66
2023/11/12 10:30:52;;;;;;;9.43;4.28;;;8.40;99.90;;;;;;5034405;28;20048;-65
2023/11/12 10:33:28;;;;;;;8.57;4.20;;;8.40;99.90;;;;;;5034250;28;20034;-66
2023/11/12 10:35:58;;;;;;;10.95;4.32;;;8.50;99.90;;;;;;5033958;28;20136;-65
2023/11/12 10:38:25;;;;;;;10.20;4.15;;;8.50;99.90;;;;;;5033786;28;20034;-65
2023/11/12 10:40:51;;;;;;;9.90;4.32;;;8.60;99.90;;;;;;5034015;28;20045;-66
2023/11/12 10:43:18;;;;;;;8.63;4.65;;;8.60;99.90;;;;;;5033778;28;20049;-65
2023/11/12 10:45:45;;;;;;;12.35;5.55;;;8.60;99.90;;;;;;5034089;28;20037;-65
2023/11/12 10:48:12;;;;;;;8.95;4.90;;;8.60;99.90;;;;;;5033508;28;20057;-65
2023/11/12 10:50:39;;;;;;;7.72;4.90;;;8.60;99.90;;;;;;5033469;28;20375;-66
2023/11/12 10:53:06;;;;;;;10.27;4.88;;;8.60;99.90;;;;;;5033564;28;20124;-66
2023/11/12 10:55:32;;;;;;;9.85;4.78;;;8.70;99.90;;;;;;5033441;28;20037;-66
2023/11/12 10:58:00;;;;;;;10.05;5.57;;;8.70;99.90;;;;;;5033500;28;20141;-66
2023/11/12 11:00:27;;;;;;;10.13;5.22;;;8.70;99.90;;;;;;5033745;28;20048;-66
2023/11/12 11:02:54;;;;;;;10.13;4.85;;;8.70;99.90;;;;;;5033845;28;20049;-65
2023/11/12 11:05:20;;;;;;;9.15;4.97;;;8.70;99.90;;;;;;5033483;28;20143;-66
2023/11/12 11:07:51;;;;;;;9.00;4.32;;;8.80;99.90;;;;;;5033666;28;20069;-66
2023/11/12 11:10:18;;;;;;;10.75;4.90;;;8.80;99.90;;;;;;5033432;28;20034;-66
2023/11/12 11:12:46;;;;;;;8.10;4.30;;;8.90;99.90;;;;;;5033845;28;20479;-66
2023/11/12 11:15:13;;;;;;;8.65;4.50;;;9.00;99.90;;;;;;5033650;28;20038;-65
2023/11/12 11:17:40;;;;;;;8.70;4.45;;;9.10;99.90;;;;;;5033117;28;20033;-65
2023/11/12 11:20:09;;;;;;;11.82;3.97;;;9.20;99.90;;;;;;5033248;28;20041;-65
2023/11/12 11:22:38;;;;;;;8.45;4.20;;;9.20;99.90;;;;;;5016407;28;20041;-65
2023/11/12 11:25:05;;;;;;;7.70;4.03;;;9.30;99.90;;;;;;5034866;28;20033;-64
2023/11/12 11:27:32;;;;;;;7.47;3.60;;;9.40;99.90;;;;;;5037511;28;20055;-64
2023/11/12 11:30:00;;;;;;;7.50;3.60;;;9.40;99.90;;;;;;5037697;28;20103;-64
2023/11/12 11:32:26;;;;;;;8.68;4.05;;;9.50;99.90;;;;;;5037745;28;20120;-64
2023/11/12 11:34:53;;;;;;;11.65;4.22;;;9.60;99.90;;;;;;5037589;28;20045;-64
2023/11/12 11:37:21;;;;;;;7.30;4.10;;;9.70;99.90;;;;;;5037497;28;20186;-65
2023/11/12 11:39:48;;;;;;;8.88;4.43;;;9.70;99.90;;;;;;5036938;28;20068;-65
2023/11/12 11:42:15;;;;;;;8.48;4.78;;;9.80;99.90;;;;;;5037109;28;20041;-63
2023/11/12 11:44:42;;;;;;;8.60;4.25;;;9.80;99.90;;;;;;5036712;28;20103;-64
2023/11/12 11:47:09;;;;;;;10.80;5.53;;;9.90;99.90;;;;;;5037139;28;20045;-64
2023/11/12 11:49:36;;;;;;;7.90;4.75;;;10.00;99.90;;;;;;5037085;28;20045;-67
2023/11/12 11:52:03;;;;;;;7.40;4.50;;;10.00;99.90;;;;;;5036842;28;20103;-66
2023/11/12 11:54:30;;;;;;;10.30;4.75;;;10.00;99.90;;;;;;5019374;28;20044;-67
2023/11/12 11:56:57;;;;;;;9.25;4.65;;;10.10;99.90;;;;;;5036578;28;20045;-66
2023/11/12 11:59:24;;;;;;;12.48;5.10;;;10.10;99.90;;;;;;5036582;28;20050;-66
2023/11/12 12:01:53;;;;;;;7.95;4.50;;;10.10;99.90;;;;;;5037115;28;20072;-66
2023/11/12 12:04:23;;;;;;;11.50;4.45;;;10.10;99.90;;;;;;5037035;28;20041;-66
2023/11/12 12:06:50;;;;;;;7.47;4.35;;;10.20;99.90;;;;;;5037050;28;20557;-66
2023/11/12 12:09:17;;;;;;;9.68;4.40;;;10.20;99.90;;;;;;5036744;28;20092;-67
2023/11/12 12:11:44;;;;;;;9.55;4.80;;;10.20;99.90;;;;;;5037295;28;20041;-67
2023/11/12 12:14:11;;;;;;;8.30;4.20;;;10.30;99.90;;;;;;5018765;28;20095;-66
2023/11/12 12:16:42;;;;;;;11.15;3.83;;;10.30;99.90;;;;;;5036938;28;20033;-67
2023/11/12 12:19:12;;;;;;;5.95;2.95;;;10.30;99.90;;;;;;5019829;28;20056;-67
2023/11/12 12:21:39;;;;;;;4.65;2.33;;;10.30;99.90;;;;;;5036922;28;20438;-66
2023/11/12 12:24:06;;;;;;;6.32;2.13;;;10.30;99.90;;;;;;5036605;28;20049;-67
2023/11/12 12:26:34;;;;;;;4.90;1.92;;;10.40;99.90;;;;;;5037125;28;20046;-67
2023/11/12 12:29:01;;;;;;;4.05;1.70;;;10.40;99.90;;;;;;5036804;28;20401;-66
2023/11/12 12:31:28;;;;;;;5.32;2.30;;;10.40;99.90;;;;;;5036547;28;20099;-66
2023/11/12 12:33:55;;;;;;;6.60;1.88;;;10.40;99.90;;;;;;5036420;28;20044;-65
2023/11/12 12:36:22;;;;;;;7.68;2.15;;;10.50;99.90;;;;;;5034970;28;20041;-66
2023/11/12 12:38:49;;;;;;;5.75;1.90;;;10.50;99.90;;;;;;5035881;28;20034;-66
2023/11/12 12:41:16;;;;;;;5.88;1.98;;;10.50;99.90;;;;;;5036443;28;20091;-66
2023/11/12 12:43:43;;;;;;;4.93;2.13;;;10.50;99.90;;;;;;5036355;28;20060;-66
2023/11/12 12:46:10;;;;;;;4.78;1.75;;;10.40;99.90;;;;;;5035995;28;20501;-65
2023/11/12 12:48:36;;;;;;;5.28;1.88;;;10.50;99.90;;;;;;5035546;28;20487;-65